Weather History for Rockwall, TX

Change the Weather History Date:

Tuesday, June 11, 2013

  Actual Average (KDFW) Record (KDFW)
Temperature  
Mean Temperature 82 °F 81 °F  
Max Temperature 91 °F 91 °F 103 °F (1911)
Min Temperature 73 °F 71 °F 55 °F (1979)
Degree Days  
Heating Degree Days 0 0  
Month to date heating degree days 0  
Since 1 June heating degree days 0  
Since 1 July heating degree days 2284  
Cooling Degree Days 17 16  
Month to date cooling degree days 160  
Year to date cooling degree days 582  
Since 1 June cooling degree days 160  
Growing Degree Days 32 (Base 50)    
Moisture  
Dew Point 71 °F    
Average Humidity 69    
Maximum Humidity 93    
Minimum Humidity 49    
Precipitation  
Precipitation 0.00 in 0.13 in 2.70 in (2009)
Month to date precipitation 1.55  
Year to date precipitation 17.80  
Sea Level Pressure  
Sea Level Pressure 29.98 in    
Wind  
Wind Speed 9 mph (South)    
Max Wind Speed 17 mph    
Max Gust Speed 23 mph    
Visibility 10 miles    
Events      
T = Trace of Precipitation, MM = Missing Value Source: NWS Daily Summary

Daily Weather History Graph

Daily Weather History Graph

Search for Another Location

Airport:

Trip Planner

Search our weather history database for the weather conditions in past years. The results will help you decide how hot, cold, wet, or windy it might be!

Date:

Astronomy

Jun. 11, 2013 Rise Set
Actual Time 6:16 AM CDT 8:34 PM CDT
Civil Twilight 5:48 AM CDT 9:02 PM CDT
Nautical Twilight 5:13 AM CDT 9:38 PM CDT
Astronomical Twilight 4:35 AM CDT 10:16 PM CDT
Moon 8:54 AM CDT (6/11) 10:45 PM CDT (6/11)
Length of Visible Light 15h 14m
Length of Day
14h 17m
Waxing Crescent, 8% of the Moon is Illuminated
Jun 11
Waxing Crescent
Jun 16
First Quarter
Jun 23
Full
Jun 29
Last Quarter
Jul 8
New

Hourly Weather History & Observations

Time (CDT) Temp. Heat Index Dew Point Humidity Pressure Visibility Wind Dir Wind Speed Gust Speed Precip Events Conditions
12:15 AM 76.3 °F - 67.1 °F 73% 29.96 in 10.0 mi Calm Calm - N/A   Clear
12:35 AM 76.1 °F - 67.5 °F 74% 29.97 in 10.0 mi Calm Calm - N/A   Clear
12:55 AM 75.9 °F - 68.0 °F 76% 29.97 in 10.0 mi SSE 3.5 mph - N/A   Clear
1:15 AM 75.6 °F - 68.0 °F 77% 29.96 in 10.0 mi South 3.5 mph - N/A   Clear
1:35 AM 75.4 °F - 68.0 °F 78% 29.96 in 10.0 mi SSE 4.6 mph - N/A   Clear
1:55 AM 74.8 °F - 68.4 °F 80% 29.96 in 10.0 mi SSE 5.8 mph - N/A   Clear
2:15 AM 75.2 °F - 69.3 °F 82% 29.96 in 10.0 mi SSE 5.8 mph - N/A   Clear
2:35 AM 76.5 °F - 69.8 °F 80% 29.96 in 10.0 mi SSE 10.4 mph - N/A   Clear
2:55 AM 76.3 °F - 69.8 °F 80% 29.96 in 10.0 mi South 10.4 mph - N/A   Clear
3:55 AM 75.4 °F - 70.3 °F 84% 29.95 in 10.0 mi South 9.2 mph 17.3 mph N/A   Clear
4:15 AM 74.8 °F - 70.3 °F 86% 29.95 in 10.0 mi South 6.9 mph - N/A   Clear
4:35 AM 74.7 °F - 70.7 °F 87% 29.95 in 10.0 mi South 11.5 mph 17.3 mph N/A   Clear
4:55 AM 74.5 °F - 70.7 °F 88% 29.96 in 10.0 mi South 13.8 mph 18.4 mph N/A   Clear
5:15 AM 74.3 °F - 70.7 °F 88% 29.96 in 10.0 mi South 15.0 mph - N/A   Clear
5:35 AM 74.1 °F - 70.9 °F 90% 29.97 in 10.0 mi South 13.8 mph 18.4 mph N/A   Clear
5:55 AM 73.8 °F - 71.1 °F 91% 29.98 in 10.0 mi SSW 13.8 mph - N/A   Clear
6:15 AM 73.6 °F - 71.1 °F 92% 29.98 in 10.0 mi South 11.5 mph 17.3 mph N/A   Clear
6:35 AM 73.8 °F - 71.2 °F 92% 29.99 in 10.0 mi South 11.5 mph 18.4 mph N/A   Clear
6:55 AM 73.8 °F - 71.6 °F 93% 30.00 in 10.0 mi South 9.2 mph 16.1 mph N/A   Clear
7:15 AM 74.5 °F - 72.0 °F 92% 30.00 in 10.0 mi South 12.7 mph 19.6 mph N/A   Clear
7:35 AM 76.1 °F - 72.9 °F 90% 30.01 in 10.0 mi South 11.5 mph 19.6 mph N/A   Clear
7:55 AM 77.2 °F - 73.4 °F 88% 30.02 in 10.0 mi South 10.4 mph 21.9 mph N/A   Clear
8:15 AM 78.1 °F - 73.6 °F 86% 30.02 in 10.0 mi South 12.7 mph 20.7 mph N/A   Clear
8:35 AM 79.0 °F - 73.9 °F 84% 30.03 in 10.0 mi South 15.0 mph 21.9 mph N/A   Scattered Clouds
8:55 AM 79.7 °F - 73.6 °F 81% 30.03 in 10.0 mi South 13.8 mph - N/A   Clear
9:15 AM 80.8 °F 85.8 °F 73.6 °F 79% 30.03 in 10.0 mi South 15.0 mph 18.4 mph N/A   Clear
9:35 AM 81.7 °F 86.7 °F 72.9 °F 74% 30.03 in 10.0 mi SSW 12.7 mph - N/A   Clear
9:55 AM 82.8 °F 88.4 °F 73.0 °F 72% 30.03 in 10.0 mi South 13.8 mph 19.6 mph N/A   Clear
10:15 AM 83.3 °F 89.3 °F 73.2 °F 71% 30.03 in 10.0 mi SSW 10.4 mph 17.3 mph N/A   Clear
10:35 AM 84.4 °F 90.6 °F 72.9 °F 68% 30.03 in 10.0 mi SSW 13.8 mph 18.4 mph N/A   Clear
10:55 AM 85.1 °F 91.1 °F 72.3 °F 65% 30.03 in 10.0 mi SSW 15.0 mph 18.4 mph N/A   Clear
11:15 AM 85.1 °F 90.1 °F 70.9 °F 62% 30.03 in 10.0 mi SSW 10.4 mph 17.3 mph N/A   Clear
11:35 AM 86.2 °F 91.8 °F 71.2 °F 61% 30.03 in 10.0 mi SSW 12.7 mph - N/A   Clear
11:55 AM 86.5 °F 93.8 °F 73.2 °F 64% 30.03 in 10.0 mi SSE 8.1 mph - N/A   Clear
12:15 PM 87.6 °F 95.2 °F 73.0 °F 62% 30.03 in 10.0 mi South 10.4 mph 16.1 mph N/A   Scattered Clouds
12:35 PM 88.0 °F 95.1 °F 72.3 °F 60% 30.03 in 10.0 mi South 11.5 mph 17.3 mph N/A   Scattered Clouds
12:55 PM 87.4 °F 94.4 °F 72.5 °F 61% 30.02 in 10.0 mi South 12.7 mph 17.3 mph N/A   Scattered Clouds
1:15 PM 88.0 °F 95.6 °F 72.9 °F 61% 30.02 in 10.0 mi South 12.7 mph 20.7 mph N/A   Mostly Cloudy
1:35 PM 89.2 °F 97.4 °F 73.2 °F 59% 30.01 in 10.0 mi South 12.7 mph 19.6 mph N/A   Scattered Clouds
1:55 PM 88.9 °F 96.1 °F 72.3 °F 58% 30.00 in 10.0 mi South 10.4 mph 20.7 mph N/A   Scattered Clouds
2:15 PM 89.2 °F 96.4 °F 72.1 °F 57% 30.00 in 10.0 mi South 15.0 mph 21.9 mph N/A   Mostly Cloudy
2:35 PM 88.9 °F 94.7 °F 71.1 °F 55% 29.99 in 10.0 mi South 12.7 mph 19.6 mph N/A   Mostly Cloudy
2:55 PM 90.3 °F 97.2 °F 71.4 °F 54% 29.98 in 10.0 mi South 15.0 mph 20.7 mph N/A   Scattered Clouds
3:15 PM 90.1 °F 96.8 °F 71.4 °F 54% 29.98 in 10.0 mi South 17.3 mph 21.9 mph N/A   Scattered Clouds
3:35 PM 90.9 °F 97.8 °F 71.4 °F 53% 29.98 in 10.0 mi South 11.5 mph 23.0 mph N/A   Scattered Clouds
3:55 PM 89.8 °F 96.0 °F 70.9 °F 54% 29.97 in 10.0 mi South 10.4 mph - N/A   Mostly Cloudy
4:15 PM 89.8 °F 95.6 °F 70.7 °F 53% 29.97 in 10.0 mi South 12.7 mph 19.6 mph N/A   Scattered Clouds
4:35 PM 91.0 °F 97.1 °F 70.7 °F 51% 29.97 in 10.0 mi SSW 15.0 mph 21.9 mph N/A   Scattered Clouds
4:55 PM 91.2 °F 97.0 °F 70.2 °F 50% 29.97 in 10.0 mi South 11.5 mph 18.4 mph N/A   Clear
5:15 PM 91.8 °F 97.5 °F 70.3 °F 49% 29.96 in 10.0 mi SSW 11.5 mph 18.4 mph N/A   Clear
5:35 PM 91.0 °F 97.1 °F 70.3 °F 51% 29.95 in 10.0 mi South 11.5 mph - N/A   Mostly Cloudy
5:55 PM 89.4 °F 94.8 °F 70.3 °F 53% 29.95 in 10.0 mi SE 10.4 mph 17.3 mph N/A   Mostly Cloudy
6:15 PM 90.9 °F 96.7 °F 70.5 °F 51% 29.94 in 10.0 mi SSE 9.2 mph 16.1 mph N/A   Scattered Clouds
6:35 PM 91.4 °F 97.3 °F 70.3 °F 50% 29.93 in 10.0 mi SSE 10.4 mph 16.1 mph N/A   Scattered Clouds
6:55 PM 90.9 °F 97.3 °F 71.2 °F 52% 29.92 in 10.0 mi SE 10.4 mph - N/A   Scattered Clouds
7:15 PM 90.9 °F 96.7 °F 70.3 °F 51% 29.92 in 10.0 mi South 12.7 mph - N/A   Clear
7:35 PM 90.1 °F 95.8 °F 70.3 °F 52% 29.92 in 10.0 mi South 11.5 mph - N/A   Clear
7:55 PM 89.6 °F 95.2 °F 70.3 °F 53% 29.93 in 10.0 mi South 8.1 mph - N/A   Clear
8:15 PM 88.5 °F 93.5 °F 70.0 °F 54% 29.93 in 10.0 mi South 9.2 mph - N/A   Clear
8:35 PM 86.7 °F 91.7 °F 70.3 °F 58% 29.93 in 10.0 mi South 8.1 mph - N/A   Clear
8:55 PM 85.8 °F 91.8 °F 72.0 °F 63% 29.94 in 10.0 mi SSE 11.5 mph 17.3 mph N/A   Scattered Clouds
9:15 PM 84.4 °F 90.3 °F 72.5 °F 67% 29.94 in 10.0 mi SSE 10.4 mph - N/A   Clear
9:35 PM 83.3 °F 89.0 °F 72.5 °F 70% 29.95 in 10.0 mi SSE 8.1 mph - N/A   Clear
9:55 PM 82.8 °F 87.9 °F 72.0 °F 70% 29.95 in 10.0 mi SSE 8.1 mph - N/A   Clear
10:15 PM 82.2 °F 86.9 °F 71.6 °F 70% 29.96 in 10.0 mi SSE 8.1 mph - N/A   Clear
10:35 PM 81.7 °F 85.8 °F 71.2 °F 70% 29.97 in 10.0 mi SSE 9.2 mph 17.3 mph N/A   Clear
10:55 PM 81.0 °F 84.9 °F 71.2 °F 72% 29.97 in 10.0 mi SSE 6.9 mph - N/A   Clear
11:15 PM 80.4 °F 84.1 °F 71.1 °F 73% 29.97 in 10.0 mi SSE 6.9 mph - N/A   Clear
11:35 PM 79.9 °F - 71.4 °F 75% 29.97 in 10.0 mi SSE 10.4 mph - N/A   Clear
11:55 PM 79.7 °F - 71.1 °F 75% 29.97 in 10.0 mi South 8.1 mph - N/A   Clear